createdAt,value
2023-02-01T00:02:15.620Z,6.44
2023-02-01T00:04:42.445Z,6.47
2023-02-01T00:07:09.530Z,6.44
2023-02-01T00:09:36.342Z,6.44
2023-02-01T00:12:04.746Z,6.40
2023-02-01T00:14:33.309Z,6.37
2023-02-01T00:17:00.438Z,6.40
2023-02-01T00:19:27.223Z,6.38
2023-02-01T00:21:54.335Z,6.37
2023-02-01T00:24:21.153Z,6.42
2023-02-01T00:26:48.342Z,6.42
2023-02-01T00:29:19.993Z,6.47
2023-02-01T00:31:47.325Z,6.43
2023-02-01T00:34:15.691Z,6.41
2023-02-01T00:36:43.343Z,6.43
2023-02-01T00:39:10.433Z,6.41
2023-02-01T00:41:37.589Z,6.47
2023-02-01T00:44:04.591Z,6.48
2023-02-01T00:46:31.754Z,6.46
2023-02-01T00:48:58.654Z,6.43
2023-02-01T00:51:27.577Z,6.43
2023-02-01T00:53:54.433Z,6.46
2023-02-01T00:56:21.551Z,6.53
2023-02-01T00:58:48.362Z,6.58
2023-02-01T01:01:19.461Z,6.60
2023-02-01T01:03:48.064Z,6.58
2023-02-01T01:06:16.212Z,6.61
2023-02-01T01:08:43.060Z,6.65
2023-02-01T01:11:18.226Z,6.63
2023-02-01T01:13:47.273Z,6.65
2023-02-01T01:16:14.460Z,6.63
2023-02-01T01:18:41.464Z,6.63
2023-02-01T01:21:08.849Z,6.64
2023-02-01T01:23:36.367Z,6.65
2023-02-01T01:26:08.180Z,6.68
2023-02-01T01:28:35.064Z,6.64
2023-02-01T01:31:02.428Z,6.60
2023-02-01T01:33:29.240Z,6.61
2023-02-01T01:35:56.308Z,6.63
2023-02-01T01:38:23.368Z,6.61
2023-02-01T01:40:53.296Z,6.63
2023-02-01T01:43:23.235Z,6.56
2023-02-01T01:45:51.132Z,6.57
2023-02-01T01:48:22.451Z,6.54
2023-02-01T01:51:04.190Z,6.56
2023-02-01T01:53:39.530Z,6.55
2023-02-01T01:56:06.936Z,6.57
2023-02-01T01:58:33.727Z,6.56
2023-02-01T02:01:01.097Z,6.56
2023-02-01T02:03:31.852Z,6.57
2023-02-01T02:05:58.957Z,6.56
2023-02-01T02:08:26.260Z,6.58
2023-02-01T02:11:00.458Z,6.57
2023-02-01T02:13:37.970Z,6.60
2023-02-01T02:16:07.347Z,6.58
2023-02-01T02:18:46.139Z,6.57
2023-02-01T02:21:34.956Z,6.53
2023-02-01T02:24:17.827Z,6.47
2023-02-01T02:27:25.573Z,6.49
2023-02-01T02:29:58.632Z,6.48
2023-02-01T02:32:56.272Z,6.46
2023-02-01T02:35:41.128Z,6.47
2023-02-01T02:38:16.944Z,6.47
2023-02-01T02:40:57.965Z,6.49
2023-02-01T02:44:07.956Z,6.49
2023-02-01T02:47:01.640Z,6.49
2023-02-01T02:49:30.410Z,6.49
2023-02-01T02:52:18.238Z,6.43
2023-02-01T02:54:47.628Z,6.48
2023-02-01T02:57:36.472Z,6.47
2023-02-01T03:00:24.855Z,6.46
2023-02-01T03:03:10.219Z,6.47
2023-02-01T03:05:38.395Z,6.50
2023-02-01T03:08:19.177Z,6.49
2023-02-01T03:11:08.612Z,6.51
2023-02-01T03:13:58.603Z,6.52
2023-02-01T03:16:34.857Z,6.51
2023-02-01T03:19:08.622Z,6.50
2023-02-01T03:21:47.484Z,6.48
2023-02-01T03:24:37.053Z,6.47
2023-02-01T03:27:31.670Z,6.48
2023-02-01T03:30:29.955Z,6.47
2023-02-01T03:33:02.210Z,6.47
2023-02-01T03:35:29.157Z,6.46
2023-02-01T03:37:59.182Z,6.43
2023-02-01T03:40:25.926Z,6.44
2023-02-01T03:42:55.371Z,6.44
2023-02-01T03:45:30.097Z,6.46
2023-02-01T03:47:57.718Z,6.45
2023-02-01T03:50:26.299Z,6.39
2023-02-01T03:53:04.491Z,6.38
2023-02-01T03:55:31.279Z,6.40
2023-02-01T03:58:02.665Z,6.39
2023-02-01T04:00:29.414Z,6.44
2023-02-01T04:02:56.558Z,6.47
2023-02-01T04:05:23.408Z,6.38
2023-02-01T04:07:50.485Z,6.37
2023-02-01T04:10:19.661Z,6.34
2023-02-01T04:12:46.975Z,6.36
2023-02-01T04:15:13.760Z,6.39
2023-02-01T04:17:40.848Z,6.36
2023-02-01T04:20:07.960Z,6.42
2023-02-01T04:22:35.013Z,6.36
2023-02-01T04:25:01.807Z,6.40
2023-02-01T04:27:28.864Z,6.34
2023-02-01T04:29:58.451Z,6.36
2023-02-01T04:32:25.697Z,6.33
2023-02-01T04:34:53.371Z,6.37
2023-02-01T04:37:20.424Z,6.35
2023-02-01T04:39:47.278Z,6.32
2023-02-01T04:42:14.394Z,6.34
2023-02-01T04:44:42.901Z,6.34
2023-02-01T04:47:10.603Z,6.38
2023-02-01T04:49:37.464Z,6.37
2023-02-01T04:52:04.775Z,6.34
2023-02-01T04:54:31.579Z,6.36
2023-02-01T04:56:58.605Z,6.35
2023-02-01T04:59:25.405Z,6.39
2023-02-01T05:01:52.485Z,6.30
2023-02-01T05:04:19.764Z,6.30
2023-02-01T05:06:46.947Z,6.32
2023-02-01T05:09:13.740Z,6.41
2023-02-01T05:11:59.524Z,6.45
2023-02-01T05:14:26.382Z,6.45
2023-02-01T05:16:53.564Z,6.48
2023-02-01T05:19:20.305Z,6.60
2023-02-01T05:21:47.415Z,6.71
2023-02-01T05:24:14.780Z,6.79
2023-02-01T05:26:42.302Z,6.84
2023-02-01T05:29:09.796Z,6.84
2023-02-01T05:31:37.261Z,6.78
2023-02-01T05:34:04.107Z,6.71
2023-02-01T05:36:31.408Z,6.66
2023-02-01T05:38:58.189Z,6.62
2023-02-01T05:41:25.296Z,6.56
2023-02-01T05:43:52.061Z,6.55
2023-02-01T05:46:19.285Z,6.53
2023-02-01T05:48:46.061Z,6.57
2023-02-01T05:51:13.229Z,6.57
2023-02-01T05:53:40.105Z,6.58
2023-02-01T05:56:07.531Z,6.56
2023-02-01T05:58:34.345Z,6.51
2023-02-01T06:01:01.911Z,6.54
2023-02-01T06:03:28.807Z,6.54
2023-02-01T06:05:55.956Z,6.52
2023-02-01T06:08:25.339Z,6.49
2023-02-01T06:10:58.183Z,6.47
2023-02-01T06:13:24.982Z,6.47
2023-02-01T06:15:52.375Z,6.51
2023-02-01T06:18:19.450Z,6.52
2023-02-01T06:20:46.609Z,6.51
2023-02-01T06:23:13.477Z,6.49
2023-02-01T06:25:40.594Z,6.52
2023-02-01T06:28:07.435Z,6.46
2023-02-01T06:30:34.640Z,6.46
2023-02-01T06:33:01.431Z,6.46
2023-02-01T06:35:28.580Z,6.46
2023-02-01T06:37:55.354Z,6.49
2023-02-01T06:40:22.914Z,6.47
2023-02-01T06:42:50.532Z,6.42
2023-02-01T06:45:17.641Z,6.44
2023-02-01T06:47:44.633Z,6.44
2023-02-01T06:50:11.785Z,6.39
2023-02-01T06:52:38.525Z,6.44
2023-02-01T06:55:06.136Z,6.43
2023-02-01T06:57:34.178Z,6.40
2023-02-01T07:00:01.253Z,6.38
2023-02-01T07:02:28.030Z,6.39
2023-02-01T07:04:55.070Z,6.40
2023-02-01T07:07:23.534Z,6.40
2023-02-01T07:09:50.918Z,6.35
2023-02-01T07:12:17.701Z,6.32
2023-02-01T07:14:44.863Z,6.26
2023-02-01T07:17:11.618Z,6.27
2023-02-01T07:19:38.690Z,6.32
2023-02-01T07:22:05.532Z,6.23
2023-02-01T07:24:32.674Z,6.22
2023-02-01T07:26:59.436Z,6.20
2023-02-01T07:29:26.551Z,6.22
2023-02-01T07:31:53.326Z,6.26
2023-02-01T07:34:20.411Z,6.22
2023-02-01T07:36:47.177Z,6.23
2023-02-01T07:39:14.227Z,6.25
2023-02-01T07:41:40.998Z,6.21
2023-02-01T07:44:08.086Z,6.21
2023-02-01T07:46:34.853Z,6.19
2023-02-01T07:49:01.971Z,6.23
2023-02-01T07:51:28.752Z,6.26
2023-02-01T07:53:56.460Z,6.26
2023-02-01T07:56:26.481Z,6.28
2023-02-01T07:58:55.627Z,6.31
2023-02-01T08:01:25.606Z,6.26
2023-02-01T08:03:57.882Z,6.24
2023-02-01T08:06:25.734Z,6.24
2023-02-01T08:08:53.048Z,6.26
2023-02-01T08:11:20.619Z,6.25
2023-02-01T08:13:47.821Z,6.26
2023-02-01T08:16:15.377Z,6.22
2023-02-01T08:18:42.732Z,6.20
2023-02-01T08:21:11.943Z,6.17
2023-02-01T08:23:39.547Z,6.24
2023-02-01T08:26:17.765Z,6.25
2023-02-01T08:28:47.220Z,6.22
2023-02-01T08:31:15.888Z,6.27
2023-02-01T08:33:43.619Z,6.28
2023-02-01T08:36:10.902Z,6.27
2023-02-01T08:38:38.971Z,6.26
2023-02-01T08:41:10.773Z,6.23
2023-02-01T08:43:38.084Z,6.27
2023-02-01T08:46:05.387Z,6.27
2023-02-01T08:48:32.797Z,6.23
2023-02-01T08:51:03.303Z,6.26
2023-02-01T08:53:30.514Z,6.29
2023-02-01T08:55:57.282Z,6.29
2023-02-01T08:58:24.494Z,6.27
2023-02-01T09:00:52.073Z,6.23
2023-02-01T09:03:19.273Z,6.29
2023-02-01T09:05:49.728Z,6.26
2023-02-01T09:08:17.490Z,6.29
2023-02-01T09:10:44.280Z,6.26
2023-02-01T09:13:12.160Z,6.28
2023-02-01T09:15:39.024Z,6.25
2023-02-01T09:18:06.292Z,6.28
2023-02-01T09:20:33.112Z,6.27
2023-02-01T09:23:01.111Z,6.27
2023-02-01T09:25:27.947Z,6.27
2023-02-01T09:27:54.992Z,6.27
2023-02-01T09:30:22.230Z,6.30
2023-02-01T09:32:49.740Z,6.32
2023-02-01T09:35:16.536Z,6.31
2023-02-01T09:37:43.602Z,6.33
2023-02-01T09:40:15.016Z,6.37
2023-02-01T09:42:53.112Z,6.35
2023-02-01T09:45:29.047Z,6.37
2023-02-01T09:47:58.814Z,6.36
2023-02-01T09:50:35.900Z,6.39
2023-02-01T09:53:04.195Z,6.38
2023-02-01T09:55:37.819Z,6.43
2023-02-01T09:58:26.706Z,6.43
2023-02-01T10:00:55.353Z,6.46
2023-02-01T10:03:22.920Z,6.50
2023-02-01T10:06:07.146Z,6.50
2023-02-01T10:08:41.170Z,6.53
2023-02-01T10:11:15.661Z,6.49
2023-02-01T10:14:22.970Z,6.58
2023-02-01T10:16:53.818Z,6.61
2023-02-01T10:19:33.912Z,6.63
2023-02-01T10:22:06.445Z,6.67
2023-02-01T10:24:53.884Z,6.71
2023-02-01T10:27:22.142Z,6.74
2023-02-01T10:29:55.566Z,6.79
2023-02-01T10:32:24.488Z,6.82
2023-02-01T10:34:58.906Z,6.79
2023-02-01T10:37:25.683Z,6.85
2023-02-01T10:39:55.176Z,6.87
2023-02-01T10:42:25.115Z,6.84
2023-02-01T10:44:52.272Z,6.81
2023-02-01T10:47:19.102Z,6.85
2023-02-01T10:50:01.523Z,6.87
2023-02-01T10:52:41.641Z,6.88
2023-02-01T10:55:28.607Z,6.86
2023-02-01T10:58:00.580Z,6.91
2023-02-01T11:00:28.589Z,6.90
2023-02-01T11:02:55.539Z,6.92
2023-02-01T11:05:23.394Z,6.95
2023-02-01T11:07:51.228Z,6.99
2023-02-01T11:10:39.071Z,7.00
2023-02-01T11:13:06.144Z,7.03
2023-02-01T11:15:33.186Z,7.06
2023-02-01T11:18:15.317Z,7.07
2023-02-01T11:20:42.841Z,7.08
2023-02-01T11:23:17.134Z,7.09
2023-02-01T11:26:03.362Z,7.10
2023-02-01T11:28:32.108Z,7.11
2023-02-01T11:31:01.487Z,7.13
2023-02-01T11:33:31.203Z,7.14
2023-02-01T11:35:59.322Z,7.16
2023-02-01T11:38:31.168Z,7.18
2023-02-01T11:41:15.514Z,7.22
2023-02-01T11:43:59.497Z,7.22
2023-02-01T11:46:31.717Z,7.20
2023-02-01T11:48:58.687Z,7.23
2023-02-01T11:51:36.865Z,7.25
2023-02-01T11:54:08.952Z,7.25
2023-02-01T11:56:35.997Z,7.29
2023-02-01T11:59:24.052Z,7.31
2023-02-01T12:02:17.075Z,7.34
2023-02-01T12:04:52.867Z,7.34
2023-02-01T12:07:44.090Z,7.38
2023-02-01T12:10:23.499Z,7.40
2023-02-01T12:13:15.553Z,7.37
2023-02-01T12:15:54.443Z,7.38
2023-02-01T12:18:50.087Z,7.39
2023-02-01T12:21:35.946Z,7.39
2023-02-01T12:24:27.178Z,7.42
2023-02-01T12:27:18.447Z,7.45
2023-02-01T12:29:49.315Z,7.46
2023-02-01T12:32:25.066Z,7.46
2023-02-01T12:34:52.120Z,7.47
2023-02-01T12:37:39.564Z,7.50
2023-02-01T12:40:28.756Z,7.51
2023-02-01T12:43:10.766Z,7.51
2023-02-01T12:45:38.567Z,7.54
2023-02-01T12:48:12.858Z,7.56
2023-02-01T12:50:46.250Z,7.54
2023-02-01T12:53:53.998Z,7.53
2023-02-01T12:56:33.975Z,7.55
2023-02-01T12:59:03.615Z,7.61
2023-02-01T13:01:49.900Z,7.56
2023-02-01T13:04:28.561Z,7.63
2023-02-01T13:06:59.022Z,7.59
2023-02-01T13:09:31.222Z,7.62
2023-02-01T13:12:08.537Z,7.63
2023-02-01T13:14:44.701Z,7.62
2023-02-01T13:17:15.538Z,7.61
2023-02-01T13:20:05.009Z,7.63
2023-02-01T13:22:36.506Z,7.68
2023-02-01T13:25:05.809Z,7.68
2023-02-01T13:27:32.979Z,7.66
2023-02-01T13:30:08.188Z,7.65
2023-02-01T13:33:51.153Z,7.65
2023-02-01T13:35:52.488Z,7.61
2023-02-01T13:38:56.094Z,7.68
2023-02-01T13:41:32.456Z,7.62
2023-02-01T13:44:03.007Z,7.56
2023-02-01T13:46:29.815Z,7.52
2023-02-01T13:49:00.246Z,7.51
2023-02-01T13:51:33.930Z,7.55
2023-02-01T13:54:01.125Z,7.54
2023-02-01T13:56:27.940Z,7.58
2023-02-01T13:58:55.129Z,7.56
2023-02-01T14:01:22.022Z,7.59
2023-02-01T14:03:51.819Z,7.59
2023-02-01T14:06:28.175Z,7.58
2023-02-01T14:09:13.222Z,7.58
2023-02-01T14:11:54.638Z,7.57
2023-02-01T14:14:21.817Z,7.53
2023-02-01T14:16:54.899Z,7.50
2023-02-01T14:19:28.466Z,7.50
2023-02-01T14:22:02.818Z,7.53
2023-02-01T14:24:34.061Z,7.50
2023-02-01T14:27:02.218Z,7.51
2023-02-01T14:29:37.254Z,7.49
2023-02-01T14:32:08.479Z,7.50
2023-02-01T14:34:47.951Z,7.50
2023-02-01T14:37:17.643Z,7.49
2023-02-01T14:39:47.554Z,7.53
2023-02-01T14:42:39.375Z,7.54
2023-02-01T14:45:28.832Z,7.52
2023-02-01T14:48:07.957Z,7.56
2023-02-01T14:50:41.816Z,7.51
2023-02-01T14:53:12.571Z,7.50
2023-02-01T14:55:54.997Z,7.49
2023-02-01T14:58:50.597Z,7.50
2023-02-01T15:01:33.848Z,7.50
2023-02-01T15:04:10.616Z,7.51
2023-02-01T15:06:55.973Z,7.44
2023-02-01T15:09:29.887Z,7.46
2023-02-01T15:11:57.061Z,7.43
2023-02-01T15:14:23.969Z,7.49
2023-02-01T15:16:54.789Z,7.46
2023-02-01T15:19:23.466Z,7.41
2023-02-01T15:21:53.002Z,7.41
2023-02-01T15:24:23.463Z,7.40
2023-02-01T15:26:51.972Z,7.44
2023-02-01T15:29:19.382Z,7.45
2023-02-01T15:31:51.240Z,7.43
2023-02-01T15:34:18.667Z,7.39
2023-02-01T15:37:01.465Z,7.40
2023-02-01T15:39:30.602Z,7.48
2023-02-01T15:42:01.919Z,7.57
2023-02-01T15:44:43.794Z,7.56
2023-02-01T15:47:19.523Z,7.56
2023-02-01T15:49:48.401Z,7.55
2023-02-01T15:52:40.187Z,7.56
2023-02-01T15:55:26.989Z,7.53
2023-02-01T15:57:54.064Z,7.55
2023-02-01T16:00:28.730Z,7.55
2023-02-01T16:03:00.518Z,7.56
2023-02-01T16:05:34.582Z,7.57
2023-02-01T16:08:05.513Z,7.59
2023-02-01T16:10:32.688Z,7.50
2023-02-01T16:13:01.315Z,7.51
2023-02-01T16:15:30.485Z,7.59
2023-02-01T16:17:57.627Z,7.49
2023-02-01T16:20:24.492Z,7.53
2023-02-01T16:22:51.703Z,7.43
2023-02-01T16:25:18.571Z,7.41
2023-02-01T16:27:45.621Z,7.50
2023-02-01T16:30:12.631Z,7.49
2023-02-01T16:32:39.783Z,7.49
2023-02-01T16:35:26.864Z,7.40
2023-02-01T16:37:54.207Z,7.44
2023-02-01T16:40:22.736Z,7.47
2023-02-01T16:42:51.709Z,7.39
2023-02-01T16:45:18.599Z,7.42
2023-02-01T16:47:52.441Z,7.47
2023-02-01T16:50:23.874Z,7.47
2023-02-01T16:52:52.447Z,7.45
2023-02-01T16:55:20.905Z,7.36
2023-02-01T16:57:48.423Z,7.33
2023-02-01T17:00:24.355Z,7.37
2023-02-01T17:02:53.263Z,7.38
2023-02-01T17:05:20.112Z,7.37
2023-02-01T17:07:47.238Z,7.30
2023-02-01T17:10:33.451Z,7.34
2023-02-01T17:13:01.972Z,7.33
2023-02-01T17:15:29.945Z,7.30
2023-02-01T17:17:58.801Z,7.31
2023-02-01T17:20:26.197Z,7.33
2023-02-01T17:22:53.393Z,7.26
2023-02-01T17:25:22.510Z,7.27
2023-02-01T17:27:49.909Z,7.24
2023-02-01T17:30:17.125Z,7.22
2023-02-01T17:32:44.342Z,7.27
2023-02-01T17:35:20.418Z,7.30
2023-02-01T17:37:47.674Z,7.27
2023-02-01T17:40:14.842Z,7.27
2023-02-01T17:42:42.066Z,7.25
2023-02-01T17:45:24.271Z,7.23
2023-02-01T17:47:51.658Z,7.22
2023-02-01T17:50:18.623Z,7.25
2023-02-01T17:52:45.728Z,7.25
2023-02-01T17:55:18.220Z,7.26
2023-02-01T17:57:45.545Z,7.24
2023-02-01T18:00:13.763Z,7.22
2023-02-01T18:02:41.065Z,7.23
2023-02-01T18:05:22.705Z,7.22
2023-02-01T18:07:50.123Z,7.23
2023-02-01T18:10:17.366Z,7.21
2023-02-01T18:12:44.830Z,7.25
2023-02-01T18:15:20.047Z,7.23
2023-02-01T18:17:47.395Z,7.21
2023-02-01T18:20:21.483Z,7.20
2023-02-01T18:22:48.834Z,7.14
2023-02-01T18:25:17.231Z,7.14
2023-02-01T18:27:44.799Z,7.20
2023-02-01T18:30:11.997Z,7.17
2023-02-01T18:32:39.218Z,7.15
2023-02-01T18:35:21.150Z,7.06
2023-02-01T18:37:49.179Z,7.02
2023-02-01T18:40:20.587Z,7.02
2023-02-01T18:42:47.886Z,7.05
2023-02-01T18:45:31.881Z,7.03
2023-02-01T18:47:59.885Z,7.03
2023-02-01T18:50:28.274Z,7.03
2023-02-01T18:52:56.326Z,6.99
2023-02-01T18:55:23.812Z,7.03
2023-02-01T18:57:51.322Z,7.03
2023-02-01T19:00:19.255Z,6.99
2023-02-01T19:02:46.730Z,6.95
2023-02-01T19:05:16.790Z,7.08
2023-02-01T19:07:46.690Z,7.06
2023-02-01T19:10:23.584Z,7.06
2023-02-01T19:12:53.243Z,7.10
2023-02-01T19:15:20.291Z,6.99
2023-02-01T19:17:48.745Z,7.01
2023-02-01T19:20:19.937Z,6.99
2023-02-01T19:22:47.421Z,6.96
2023-02-01T19:25:17.501Z,6.93
2023-02-01T19:27:44.588Z,6.95
2023-02-01T19:30:12.855Z,6.96
2023-02-01T19:32:40.404Z,6.94
2023-02-01T19:35:08.187Z,6.92
2023-02-01T19:37:35.307Z,6.88
2023-02-01T19:40:02.536Z,6.89
2023-02-01T19:42:30.132Z,6.88
2023-02-01T19:44:56.962Z,6.91
2023-02-01T19:47:24.175Z,6.94
2023-02-01T19:49:50.975Z,6.89
2023-02-01T19:52:18.088Z,6.97
2023-02-01T19:54:44.860Z,6.93
2023-02-01T19:57:12.030Z,6.88
2023-02-01T19:59:38.816Z,6.86
2023-02-01T20:02:05.033Z,6.88
2023-02-01T20:04:31.825Z,6.86
2023-02-01T20:06:59.142Z,6.85
2023-02-01T20:09:28.162Z,6.88
2023-02-01T20:11:55.297Z,6.85
2023-02-01T20:14:24.135Z,6.83
2023-02-01T20:16:51.224Z,6.82
2023-02-01T20:19:18.286Z,6.86
2023-02-01T20:21:45.440Z,6.86
2023-02-01T20:24:13.748Z,6.87
2023-02-01T20:26:41.797Z,6.87
2023-02-01T20:29:09.001Z,6.85
2023-02-01T20:31:36.386Z,6.85
2023-02-01T20:34:03.515Z,6.86
2023-02-01T20:36:31.237Z,6.92
2023-02-01T20:38:58.171Z,6.99
2023-02-01T20:41:25.884Z,6.92
2023-02-01T20:43:53.217Z,6.92
2023-02-01T20:46:20.452Z,6.90
2023-02-01T20:48:48.291Z,6.88
2023-02-01T20:51:16.761Z,6.96
2023-02-01T20:53:43.805Z,6.90
2023-02-01T20:56:11.903Z,6.85
2023-02-01T20:58:38.984Z,6.83
2023-02-01T21:01:06.132Z,6.79
2023-02-01T21:03:32.947Z,6.88
2023-02-01T21:06:00.254Z,6.86
2023-02-01T21:08:27.691Z,6.83
2023-02-01T21:11:04.513Z,6.83
2023-02-01T21:13:32.604Z,6.81
2023-02-01T21:15:59.822Z,6.86
2023-02-01T21:18:26.683Z,6.77
2023-02-01T21:20:53.728Z,6.82
2023-02-01T21:23:20.562Z,6.76
2023-02-01T21:25:47.915Z,6.74
2023-02-01T21:28:14.703Z,6.77
2023-02-01T21:30:41.782Z,6.75
2023-02-01T21:33:08.512Z,6.71
2023-02-01T21:35:35.573Z,6.72
2023-02-01T21:38:02.389Z,6.77
2023-02-01T21:40:29.488Z,6.71
2023-02-01T21:42:56.304Z,6.69
2023-02-01T21:45:23.597Z,6.73
2023-02-01T21:47:50.712Z,6.74
2023-02-01T21:50:19.558Z,6.73
2023-02-01T21:52:46.646Z,6.70
2023-02-01T21:55:14.018Z,6.72
2023-02-01T21:57:41.099Z,6.71
2023-02-01T22:00:09.102Z,6.73
2023-02-01T22:02:36.058Z,6.73
2023-02-01T22:05:05.363Z,6.72
2023-02-01T22:07:34.132Z,6.68
2023-02-01T22:10:01.890Z,6.71
2023-02-01T22:12:28.666Z,6.72
2023-02-01T22:14:55.726Z,6.76
2023-02-01T22:17:22.513Z,6.78
2023-02-01T22:19:49.622Z,6.83
2023-02-01T22:22:16.865Z,6.83
2023-02-01T22:24:44.151Z,6.78
2023-02-01T22:27:13.446Z,6.74
2023-02-01T22:29:42.693Z,6.75
2023-02-01T22:32:09.837Z,6.78
2023-02-01T22:34:36.934Z,6.85
2023-02-01T22:37:03.741Z,6.79
2023-02-01T22:39:30.873Z,6.83
2023-02-01T22:41:57.626Z,6.78
2023-02-01T22:44:24.724Z,6.87
2023-02-01T22:46:51.475Z,6.83
2023-02-01T22:49:18.566Z,6.92
2023-02-01T22:51:46.280Z,6.93
2023-02-01T22:54:16.917Z,6.91
2023-02-01T22:56:43.679Z,6.93
2023-02-01T22:59:11.898Z,6.95
2023-02-01T23:01:38.679Z,6.96
2023-02-01T23:04:07.855Z,6.90
2023-02-01T23:06:34.729Z,6.91
2023-02-01T23:09:04.055Z,6.86
2023-02-01T23:11:30.917Z,6.89
2023-02-01T23:13:58.087Z,6.94
2023-02-01T23:16:25.174Z,6.92
2023-02-01T23:18:52.281Z,6.88
2023-02-01T23:21:20.892Z,6.92
2023-02-01T23:23:52.555Z,6.90
2023-02-01T23:26:19.579Z,6.86
2023-02-01T23:28:46.823Z,6.90
2023-02-01T23:31:14.378Z,6.90
2023-02-01T23:33:41.624Z,6.91
2023-02-01T23:36:10.741Z,6.90
2023-02-01T23:38:37.803Z,6.87
2023-02-01T23:41:05.815Z,6.90
2023-02-01T23:43:51.602Z,6.88
2023-02-01T23:46:18.534Z,6.88
2023-02-01T23:48:47.094Z,6.90
2023-02-01T23:51:15.245Z,6.93
2023-02-01T23:53:42.339Z,6.91
2023-02-01T23:56:19.263Z,6.87
2023-02-01T23:58:46.669Z,6.93
